Time;durP1;ratioP1;P1;durP2;ratioP2;P2;SDS_P1;SDS_P2;PMS_P1;PMS_P2;Temp;Humidity;BMP_temperature;BMP_pressure;BME280_temperature;BME280_humidity;BME280_pressure;Samples;Min_cycle;Max_cycle;Signal;HPM_P1;HPM_P2
2022/05/13 00:00:46;;;;;;;12.32;4.20;;;10.80;99.90;;;;;;5094412;28;20658;-59
2022/05/13 00:03:12;;;;;;;12.60;4.78;;;11.00;99.90;;;;;;5095944;28;20051;-59
2022/05/13 00:05:37;;;;;;;11.82;3.95;;;11.00;99.90;;;;;;5096123;28;20044;-59
2022/05/13 00:08:03;;;;;;;10.38;4.03;;;11.70;99.90;;;;;;5094547;28;20126;-59
2022/05/13 00:10:29;;;;;;;14.52;4.07;;;10.80;99.90;;;;;;5093848;28;20271;-59
2022/05/13 00:12:55;;;;;;;12.85;3.90;;;11.00;99.90;;;;;;5094941;28;20247;-59
2022/05/13 00:15:24;;;;;;;13.23;4.40;;;13.00;99.90;;;;;;5093568;28;20185;-58
2022/05/13 00:17:53;;;;;;;11.63;4.75;;;10.90;99.90;;;;;;5095297;28;20160;-59
2022/05/13 00:20:20;;;;;;;11.13;4.05;;;11.00;99.90;;;;;;5093895;28;20043;-58
2022/05/13 00:22:54;;;;;;;12.77;4.47;;;11.10;99.90;;;;;;5096312;28;20507;-59
2022/05/13 00:25:24;;;;;;;17.63;4.45;;;11.10;99.90;;;;;;5095347;28;20124;-59
2022/05/13 00:27:50;;;;;;;11.48;4.63;;;11.10;99.90;;;;;;5094888;28;20677;-60
2022/05/13 00:30:18;;;;;;;10.82;4.30;;;11.10;99.90;;;;;;5096333;28;20318;-59
2022/05/13 00:32:47;;;;;;;15.27;4.78;;;11.20;99.90;;;;;;5095234;28;20052;-59
2022/05/13 00:35:13;;;;;;;13.65;4.35;;;11.20;99.90;;;;;;5095937;28;20445;-59
2022/05/13 00:37:38;;;;;;;14.68;4.82;;;11.10;99.90;;;;;;5094906;28;20042;-59
2022/05/13 00:40:05;;;;;;;15.35;4.65;;;12.40;99.90;;;;;;5094808;28;20496;-59
2022/05/13 00:42:31;;;;;;;16.10;4.53;;;11.30;99.90;;;;;;5095230;28;20045;-59
2022/05/13 00:44:59;;;;;;;11.80;4.13;;;11.30;99.90;;;;;;5094523;28;20035;-59
2022/05/13 00:47:25;;;;;;;15.02;4.32;;;12.50;99.90;;;;;;5095402;28;20575;-59
2022/05/13 00:49:55;;;;;;;12.75;4.18;;;11.10;99.90;;;;;;5094823;28;20031;-59
2022/05/13 00:52:21;;;;;;;11.43;4.00;;;11.30;99.90;;;;;;5093748;28;20527;-58
2022/05/13 00:54:47;;;;;;;14.45;3.88;;;11.30;99.90;;;;;;5094666;28;20093;-59
2022/05/13 00:57:15;;;;;;;16.67;4.40;;;11.20;99.90;;;;;;5094705;28;20048;-58
2022/05/13 00:59:44;;;;;;;13.15;3.97;;;11.50;99.90;;;;;;5093909;28;20051;-58
2022/05/13 01:02:10;;;;;;;12.40;4.20;;;12.80;99.90;;;;;;5092591;28;20085;-59
2022/05/13 01:04:39;;;;;;;14.18;4.05;;;12.20;99.90;;;;;;5091562;28;20031;-59
2022/05/13 01:07:09;;;;;;;15.18;4.03;;;12.30;99.90;;;;;;5094982;27;20040;-59
2022/05/13 01:09:41;;;;;;;14.55;4.20;;;11.60;99.90;;;;;;5094189;28;20126;-59
2022/05/13 01:12:11;;;;;;;12.85;3.78;;;12.30;99.90;;;;;;5093966;28;20111;-59
2022/05/13 01:14:56;;;;;;;19.90;4.05;;;11.30;99.90;;;;;;5093758;28;20047;-59
2022/05/13 01:20:20;;;;;;;18.38;4.53;;;11.40;99.90;;;;;;5093706;28;20469;-59
2022/05/13 01:22:50;;;;;;;18.25;4.50;;;11.60;99.90;;;;;;5093809;28;20075;-59
2022/05/13 01:25:20;;;;;;;17.27;4.80;;;11.50;99.90;;;;;;5092991;28;20129;-59
2022/05/13 01:27:47;;;;;;;19.88;5.65;;;13.50;99.90;;;;;;5092932;28;20109;-59
2022/05/13 01:30:17;;;;;;;19.77;4.13;;;11.60;99.90;;;;;;5092725;28;20035;-59
2022/05/13 01:32:43;;;;;;;14.02;3.90;;;12.70;99.90;;;;;;5093328;28;20034;-59
2022/05/13 01:35:11;;;;;;;15.10;4.15;;;11.40;99.90;;;;;;5092783;28;20035;-59
2022/05/13 01:37:39;;;;;;;17.45;4.32;;;11.50;99.90;;;;;;5094426;28;20140;-59
2022/05/13 01:40:07;;;;;;;14.40;4.20;;;11.20;99.90;;;;;;5093538;28;20118;-59
2022/05/13 01:42:33;;;;;;;10.98;3.85;;;11.60;99.90;;;;;;5093088;28;20035;-59
2022/05/13 01:44:59;;;;;;;15.00;4.18;;;12.50;99.90;;;;;;5094623;28;20181;-59
2022/05/13 01:47:25;;;;;;;17.98;4.70;;;11.50;99.90;;;;;;5093973;28;20040;-59
2022/05/13 01:49:53;;;;;;;10.75;4.20;;;11.50;99.90;;;;;;5093530;28;20111;-59
2022/05/13 01:52:19;;;;;;;15.35;4.82;;;11.50;99.90;;;;;;5093494;28;20542;-59
2022/05/13 01:54:44;;;;;;;16.33;4.50;;;11.30;99.90;;;;;;5093933;28;20143;-59
2022/05/13 01:57:10;;;;;;;16.67;5.70;;;13.30;99.90;;;;;;5093573;28;20457;-60
2022/05/13 01:59:36;;;;;;;19.33;5.22;;;13.50;99.90;;;;;;5094406;28;20036;-59
2022/05/13 02:02:02;;;;;;;15.77;4.53;;;12.60;99.90;;;;;;5092830;28;20699;-59
2022/05/13 02:04:30;;;;;;;19.35;4.80;;;12.50;99.90;;;;;;5093779;28;20694;-59
2022/05/13 02:06:55;;;;;;;22.55;6.68;;;11.80;99.90;;;;;;5093903;28;20035;-59
2022/05/13 02:09:21;;;;;;;22.27;5.57;;;11.40;99.90;;;;;;5093425;28;20925;-59
2022/05/13 02:11:47;;;;;;;15.40;4.72;;;11.30;99.90;;;;;;5092580;27;20050;-60
2022/05/13 02:14:14;;;;;;;20.33;5.10;;;12.80;99.90;;;;;;5092048;28;20046;-60
2022/05/13 02:16:40;;;;;;;19.13;5.72;;;12.00;99.90;;;;;;5092466;28;20095;-59
2022/05/13 02:19:06;;;;;;;22.27;5.50;;;11.40;99.90;;;;;;5092176;27;20048;-59
2022/05/13 02:21:33;;;;;;;17.17;5.60;;;11.40;99.90;;;;;;5093005;28;20040;-58
2022/05/13 02:23:59;;;;;;;20.13;5.40;;;11.50;99.90;;;;;;5091453;28;20039;-59
2022/05/13 02:26:25;;;;;;;21.33;5.40;;;11.60;99.90;;;;;;5092811;28;20042;-59
2022/05/13 02:28:52;;;;;;;22.15;6.28;;;11.40;99.90;;;;;;5091322;28;20090;-59
2022/05/13 02:31:18;;;;;;;23.67;6.20;;;12.60;99.90;;;;;;5093566;28;20089;-59
2022/05/13 02:33:44;;;;;;;17.40;5.80;;;11.80;99.90;;;;;;5092402;28;20883;-59
2022/05/13 02:36:12;;;;;;;20.95;6.53;;;11.70;99.90;;;;;;5093237;28;20400;-59
2022/05/13 02:38:39;;;;;;;18.52;5.03;;;11.80;99.90;;;;;;5090259;28;20163;-59
2022/05/13 02:41:11;;;;;;;21.77;5.70;;;13.50;99.90;;;;;;5092255;28;20163;-59
2022/05/13 02:43:39;;;;;;;;;;;12.60;99.90;;;;;;5091206;28;20044;-59
2022/05/13 02:46:04;;;;;;;16.95;5.88;;;13.70;99.90;;;;;;5092642;28;19930;-59
2022/05/13 02:48:31;;;;;;;23.60;5.60;;;11.60;99.90;;;;;;5091907;28;20039;-59
2022/05/13 02:50:58;;;;;;;26.25;6.05;;;11.60;99.90;;;;;;5092000;28;20040;-59
2022/05/13 02:53:24;;;;;;;17.40;5.40;;;11.70;99.90;;;;;;5092301;28;20089;-59
2022/05/13 02:55:50;;;;;;;19.08;5.60;;;11.40;99.90;;;;;;5091849;28;20592;-59
2022/05/13 02:58:16;;;;;;;20.63;5.90;;;11.50;99.90;;;;;;5092072;28;20241;-59
2022/05/13 03:00:44;;;;;;;22.35;6.28;;;13.50;99.90;;;;;;5091909;28;20044;-59
2022/05/13 03:03:10;;;;;;;20.88;5.95;;;13.60;99.90;;;;;;5093709;28;20048;-60
2022/05/13 03:05:36;;;;;;;19.80;5.38;;;11.50;99.90;;;;;;5092649;28;20039;-60
2022/05/13 03:08:03;;;;;;;21.83;5.82;;;11.40;99.90;;;;;;5093894;28;20046;-59
2022/05/13 03:10:30;;;;;;;18.02;5.97;;;11.50;99.90;;;;;;5092893;28;20051;-59
2022/05/13 03:12:57;;;;;;;23.95;6.22;;;11.40;99.90;;;;;;5093017;28;20052;-59
2022/05/13 03:15:26;;;;;;;24.27;6.07;;;12.40;99.90;;;;;;5092816;28;20036;-59
2022/05/13 03:17:51;;;;;;;21.25;6.32;;;11.60;99.90;;;;;;5093208;28;20069;-59
2022/05/13 03:20:19;;;;;;;23.92;5.30;;;11.70;99.90;;;;;;5093560;28;20039;-59
2022/05/13 03:22:47;;;;;;;20.45;6.28;;;11.40;99.90;;;;;;5090923;28;20303;-58
2022/05/13 03:25:13;;;;;;;24.10;5.55;;;12.00;99.90;;;;;;5092967;28;20050;-58
2022/05/13 03:27:40;;;;;;;21.02;5.13;;;11.40;99.90;;;;;;5091582;28;20539;-59
2022/05/13 03:30:09;;;;;;;23.15;6.13;;;11.40;99.90;;;;;;5091134;28;20046;-59
2022/05/13 03:32:35;;;;;;;22.50;5.55;;;11.20;99.90;;;;;;5092919;28;20626;-59
2022/05/13 03:35:03;;;;;;;22.52;6.00;;;12.40;99.90;;;;;;5095658;28;20039;-60
2022/05/13 03:37:30;;;;;;;20.60;5.18;;;11.80;99.90;;;;;;5096697;28;20047;-61
2022/05/13 03:39:56;;;;;;;25.77;6.20;;;12.80;99.90;;;;;;5096696;28;20039;-58
2022/05/13 03:42:22;;;;;;;27.65;6.28;;;12.80;99.90;;;;;;5095685;28;20609;-60
2022/05/13 03:44:50;;;;;;;25.85;6.90;;;11.70;99.90;;;;;;5095602;28;20040;-60
2022/05/13 03:47:17;;;;;;;23.25;5.70;;;12.00;99.90;;;;;;5096092;28;20451;-59
2022/05/13 03:49:42;;;;;;;22.20;5.28;;;11.50;99.90;;;;;;5095723;28;20070;-61
2022/05/13 03:52:10;;;;;;;22.58;6.32;;;11.60;99.90;;;;;;5096166;28;20151;-60
2022/05/13 03:54:38;;;;;;;15.68;5.40;;;11.50;99.90;;;;;;5094140;28;20073;-59
2022/05/13 03:57:05;;;;;;;17.25;5.15;;;11.70;99.90;;;;;;5095419;28;20598;-59
2022/05/13 03:59:30;;;;;;;23.08;5.85;;;11.70;99.90;;;;;;5094949;28;20073;-59
2022/05/13 04:01:56;;;;;;;28.65;5.75;;;11.50;99.90;;;;;;5096177;28;20602;-60
2022/05/13 04:04:22;;;;;;;24.65;5.68;;;13.50;99.90;;;;;;5094768;28;20054;-60
2022/05/13 04:09:33;;;;;;;26.08;6.53;;;12.10;99.90;;;;;;5096410;28;20423;-60
2022/05/13 04:17:31;;;;;;;18.75;5.80;;;13.70;99.90;;;;;;5095671;28;20527;-59
2022/05/13 04:19:57;;;;;;;22.67;5.60;;;11.10;99.90;;;;;;5095665;28;20111;-60
2022/05/13 04:22:25;;;;;;;20.25;4.63;;;11.70;99.90;;;;;;5096320;28;20438;-60
2022/05/13 04:24:52;;;;;;;25.88;5.70;;;11.00;99.90;;;;;;5094915;28;20040;-60
2022/05/13 04:27:19;;;;;;;25.67;5.32;;;13.70;99.90;;;;;;5094796;28;20126;-59
2022/05/13 04:29:44;;;;;;;28.92;6.00;;;12.70;99.90;;;;;;5094957;28;20036;-59
2022/05/13 04:32:12;;;;;;;16.17;4.47;;;11.10;99.90;;;;;;5095924;28;20054;-59
2022/05/13 04:34:38;;;;;;;19.90;4.80;;;12.60;99.90;;;;;;5095361;28;20051;-59
2022/05/13 04:37:04;;;;;;;19.15;4.40;;;12.00;99.90;;;;;;5093233;28;20040;-59
2022/05/13 04:39:32;;;;;;;21.25;4.53;;;11.70;99.90;;;;;;5093509;28;20047;-59
2022/05/13 04:44:44;;;;;;;13.95;3.08;;;12.50;99.90;;;;;;5093718;28;20058;-60
2022/05/13 04:50:01;;;;;;;22.88;4.65;;;11.80;99.90;;;;;;5050663;28;20044;-60
2022/05/13 04:52:27;;;;;;;13.05;2.97;;;12.00;99.90;;;;;;5050138;28;20059;-59
2022/05/13 04:54:52;;;;;;;15.35;3.00;;;12.00;99.90;;;;;;5049803;28;20059;-59
2022/05/13 04:57:18;;;;;;;15.73;3.15;;;12.30;99.90;;;;;;5050711;28;20044;-60
2022/05/13 04:59:43;;;;;;;17.52;3.80;;;12.50;99.90;;;;;;5049372;28;20093;-60
2022/05/13 05:02:09;;;;;;;14.00;2.80;;;11.90;99.90;;;;;;5032254;28;20079;-60
2022/05/13 05:04:35;;;;;;;11.98;2.83;;;12.20;99.90;;;;;;5032821;28;20425;-60
2022/05/13 05:07:01;;;;;;;15.18;3.03;;;14.00;99.90;;;;;;5049453;28;20048;-61
2022/05/13 05:09:27;;;;;;;10.65;2.40;;;12.00;99.90;;;;;;5049385;28;20139;-60
2022/05/13 05:11:57;;;;;;;13.70;2.70;;;12.10;99.90;;;;;;5047754;28;20131;-60
2022/05/13 05:14:22;;;;;;;11.77;3.38;;;12.20;99.90;;;;;;5032232;28;20071;-59
2022/05/13 05:16:48;;;;;;;11.15;2.78;;;12.30;99.90;;;;;;5049020;28;20036;-60
2022/05/13 05:19:17;;;;;;;13.32;3.03;;;12.90;99.90;;;;;;5048925;28;20052;-60
2022/05/13 05:21:43;;;;;;;12.40;2.25;;;12.60;99.90;;;;;;5048794;28;21101;-60
2022/05/13 05:24:09;;;;;;;9.05;2.70;;;13.30;99.90;;;;;;5049263;28;20033;-60
2022/05/13 05:26:34;;;;;;;12.30;2.45;;;12.20;99.90;;;;;;5064967;28;20054;-59
2022/05/13 05:29:00;;;;;;;11.95;3.47;;;12.40;99.90;;;;;;5094450;28;20039;-60
2022/05/13 05:31:26;;;;;;;11.20;2.95;;;12.60;99.90;;;;;;5093935;28;20352;-60
2022/05/13 05:33:51;;;;;;;11.27;2.63;;;13.80;99.90;;;;;;5094041;28;20406;-59
2022/05/13 05:36:17;;;;;;;14.68;2.40;;;14.70;99.90;;;;;;5091442;28;20047;-60
2022/05/13 05:38:43;;;;;;;11.43;2.65;;;13.20;99.90;;;;;;5094049;28;20054;-60
2022/05/13 05:41:10;;;;;;;12.43;2.20;;;12.40;99.90;;;;;;5093062;28;20907;-61
2022/05/13 05:43:36;;;;;;;8.82;2.42;;;12.70;99.90;;;;;;5092655;28;20035;-60
2022/05/13 05:46:03;;;;;;;12.00;2.40;;;12.40;99.90;;;;;;5091183;28;20337;-60
2022/05/13 05:48:29;;;;;;;7.43;2.03;;;14.00;99.90;;;;;;5093317;28;20051;-59
2022/05/13 05:50:58;;;;;;;12.20;2.30;;;12.70;99.90;;;;;;5093630;28;20040;-60
2022/05/13 05:59:07;;;;;;;11.18;2.70;;;12.60;99.90;;;;;;5048854;28;20432;-59
2022/05/13 06:01:33;;;;;;;9.13;2.17;;;12.60;99.90;;;;;;5047806;28;20060;-60
2022/05/13 06:03:59;;;;;;;9.15;2.13;;;12.70;99.90;;;;;;5048581;28;20547;-60
2022/05/13 06:06:25;;;;;;;11.02;2.25;;;12.60;99.90;;;;;;5046850;28;20207;-60
2022/05/13 06:08:55;;;;;;;11.38;2.10;;;12.80;99.90;;;;;;5047601;28;20048;-60
2022/05/13 06:11:24;;;;;;;11.38;2.70;;;12.70;99.90;;;;;;5031535;28;20052;-60
2022/05/13 06:13:53;;;;;;;12.75;2.13;;;12.90;99.90;;;;;;5047507;28;20099;-60
2022/05/13 06:16:22;;;;;;;9.27;2.00;;;13.70;99.90;;;;;;5048065;28;20041;-60
2022/05/13 06:18:48;;;;;;;7.85;2.28;;;12.80;99.90;;;;;;5046919;28;20413;-60
2022/05/13 06:21:14;;;;;;;10.88;2.88;;;12.70;99.90;;;;;;5047567;28;20052;-59
2022/05/13 06:23:40;;;;;;;10.35;1.80;;;12.90;99.90;;;;;;5048668;28;20449;-60
2022/05/13 06:26:06;;;;;;;12.93;2.00;;;12.90;99.90;;;;;;5030399;28;20114;-60
2022/05/13 06:28:34;;;;;;;9.40;2.00;;;13.10;99.90;;;;;;5048310;28;20044;-60
2022/05/13 06:31:00;;;;;;;9.20;1.83;;;12.90;99.90;;;;;;5050483;28;20063;-60
2022/05/13 06:33:26;;;;;;;13.65;2.60;;;13.00;99.90;;;;;;5090767;28;20408;-60
2022/05/13 06:35:54;;;;;;;11.88;1.98;;;15.20;99.90;;;;;;5092707;28;20044;-62
2022/05/13 06:38:22;;;;;;;11.05;2.20;;;13.60;99.90;;;;;;5092347;28;20036;-60
2022/05/13 06:40:49;;;;;;;13.07;2.40;;;14.00;99.90;;;;;;5093272;28;20108;-60
2022/05/13 06:43:16;;;;;;;11.60;2.40;;;13.40;99.90;;;;;;5092005;28;20190;-61
2022/05/13 06:45:42;;;;;;;10.27;2.22;;;13.20;99.90;;;;;;5091963;28;20040;-60
2022/05/13 06:48:08;;;;;;;9.63;2.10;;;15.30;99.90;;;;;;5092468;28;20036;-60
2022/05/13 06:50:34;;;;;;;12.63;1.73;;;13.60;99.90;;;;;;5092291;28;20047;-60
2022/05/13 06:53:00;;;;;;;12.02;2.05;;;13.60;99.90;;;;;;5090930;28;21891;-61
2022/05/13 06:55:26;;;;;;;11.38;2.10;;;13.60;99.90;;;;;;5091787;28;20510;-61
2022/05/13 06:57:52;;;;;;;14.52;2.05;;;13.90;99.90;;;;;;5091367;28;20058;-61
2022/05/13 07:00:18;;;;;;;9.15;1.95;;;13.90;99.90;;;;;;5092311;28;20039;-61
2022/05/13 07:02:44;;;;;;;8.30;2.28;;;13.70;99.90;;;;;;5092718;28;20032;-60
2022/05/13 07:05:13;;;;;;;12.60;2.83;;;13.70;99.90;;;;;;5090134;28;20039;-60
2022/05/13 07:07:39;;;;;;;11.68;2.15;;;13.80;99.90;;;;;;5092960;28;20218;-61
2022/05/13 07:10:06;;;;;;;8.57;2.55;;;13.60;99.90;;;;;;5096643;27;20510;-61
2022/05/13 07:12:32;;;;;;;11.70;2.60;;;13.60;99.90;;;;;;5095447;28;20597;-60
2022/05/13 07:14:58;;;;;;;9.75;2.28;;;14.80;99.90;;;;;;5092851;28;21072;-61
2022/05/13 07:17:25;;;;;;;9.30;2.20;;;13.90;99.90;;;;;;5093108;28;20138;-61
2022/05/13 07:19:51;;;;;;;10.82;2.55;;;14.60;99.90;;;;;;5095749;28;20046;-60
2022/05/13 07:22:17;;;;;;;11.88;2.85;;;15.10;99.90;;;;;;5094347;28;20039;-61
2022/05/13 07:24:43;;;;;;;11.10;3.75;;;16.20;99.90;;;;;;5096983;28;20150;-61
2022/05/13 07:27:08;;;;;;;12.27;2.60;;;17.20;99.90;;;;;;5094475;28;20035;-61
2022/05/13 07:29:34;;;;;;;11.25;2.10;;;17.30;99.90;;;;;;5094410;28;20054;-61
2022/05/13 07:32:00;;;;;;;9.80;2.70;;;17.40;99.90;;;;;;5094952;28;20040;-61
2022/05/13 07:34:26;;;;;;;10.70;2.10;;;20.00;99.90;;;;;;5095671;28;20066;-61
2022/05/13 07:36:54;;;;;;;12.68;2.53;;;18.30;99.90;;;;;;5093215;28;20051;-60
2022/05/13 07:42:10;;;;;;;7.93;1.58;;;20.30;99.90;;;;;;5092597;28;20050;-61
2022/05/13 07:44:36;;;;;;;9.15;2.50;;;19.20;99.90;;;;;;5092436;28;20093;-61
2022/05/13 07:47:04;;;;;;;7.70;1.77;;;19.10;99.90;;;;;;5094938;28;20067;-61
2022/05/13 07:49:30;;;;;;;5.20;1.40;;;19.30;99.90;;;;;;5093157;28;20035;-61
2022/05/13 07:51:56;;;;;;;9.80;1.60;;;19.10;99.90;;;;;;5094597;28;20101;-61
2022/05/13 07:54:22;;;;;;;11.32;1.70;;;18.80;99.90;;;;;;5095712;28;20559;-60
2022/05/13 07:56:50;;;;;;;7.60;2.05;;;18.40;99.90;;;;;;5095238;28;20046;-61
2022/05/13 07:59:17;;;;;;;7.03;1.90;;;17.40;99.90;;;;;;5095537;28;20842;-60
2022/05/13 08:01:43;;;;;;;7.13;2.00;;;19.10;99.90;;;;;;5094360;28;20071;-60
2022/05/13 08:04:10;;;;;;;8.73;2.05;;;16.30;99.90;;;;;;5095915;28;20176;-61
2022/05/13 08:06:39;;;;;;;6.47;1.88;;;15.90;99.90;;;;;;5095148;28;20994;-61
2022/05/13 08:09:04;;;;;;;7.93;2.08;;;15.30;99.90;;;;;;5096281;28;20051;-61
2022/05/13 08:11:30;;;;;;;8.07;1.70;;;16.80;99.90;;;;;;5094279;28;20436;-61
2022/05/13 08:13:58;;;;;;;9.70;1.63;;;15.30;99.90;;;;;;5095386;28;20039;-60
2022/05/13 08:16:29;;;;;;;6.93;1.70;;;15.30;99.90;;;;;;5093580;28;20559;-60
2022/05/13 08:18:56;;;;;;;7.68;2.25;;;15.80;99.90;;;;;;5092917;28;20051;-60
2022/05/13 08:21:24;;;;;;;10.38;1.98;;;16.20;99.90;;;;;;5094974;28;20059;-61
2022/05/13 08:23:50;;;;;;;5.95;1.67;;;16.10;99.90;;;;;;5093239;28;20123;-60
2022/05/13 08:26:16;;;;;;;11.40;1.80;;;14.70;99.90;;;;;;5093214;28;20056;-61
2022/05/13 08:28:42;;;;;;;10.50;2.35;;;15.40;99.90;;;;;;5092904;28;20048;-61
2022/05/13 08:31:08;;;;;;;9.60;1.75;;;17.40;99.90;;;;;;5092723;28;21121;-60
2022/05/13 08:33:34;;;;;;;11.25;1.88;;;17.00;99.90;;;;;;5092484;28;20047;-60
2022/05/13 08:36:04;;;;;;;10.20;2.10;;;16.90;99.90;;;;;;5094703;28;20453;-61
2022/05/13 08:38:33;;;;;;;13.25;1.70;;;16.60;99.90;;;;;;5094223;28;20031;-60
2022/05/13 08:41:10;;;;;;;8.32;1.83;;;16.10;99.90;;;;;;5095821;28;20093;-60
2022/05/13 08:44:04;;;;;;;8.25;1.90;;;15.70;99.90;;;;;;5093660;28;20209;-60
2022/05/13 08:46:38;;;;;;;9.55;1.40;;;15.70;99.90;;;;;;5092964;28;20051;-61
2022/05/13 08:49:23;;;;;;;8.30;1.55;;;15.90;99.90;;;;;;5093472;28;20047;-61
2022/05/13 08:51:57;;;;;;;8.02;1.55;;;16.10;99.90;;;;;;5093590;28;20504;-61
2022/05/13 08:54:35;;;;;;;8.82;1.70;;;16.30;99.90;;;;;;5091839;28;20051;-61
2022/05/13 08:57:06;;;;;;;7.43;1.40;;;15.90;99.90;;;;;;5093341;28;20784;-63
2022/05/13 08:59:52;;;;;;;6.85;1.33;;;15.60;99.90;;;;;;5093346;28;20622;-59
2022/05/13 09:02:19;;;;;;;12.75;2.13;;;15.90;99.90;;;;;;5091487;28;20082;-60
2022/05/13 09:04:55;;;;;;;7.05;1.40;;;16.70;99.90;;;;;;5093785;28;20105;-60
2022/05/13 09:07:21;;;;;;;9.00;1.55;;;17.80;99.90;;;;;;5092487;28;20427;-58
2022/05/13 09:09:51;;;;;;;7.55;1.70;;;18.10;99.90;;;;;;5094719;28;20051;-59
2022/05/13 09:12:30;;;;;;;9.93;1.63;;;19.70;99.90;;;;;;5094769;28;20132;-60
2022/05/13 09:15:12;;;;;;;4.40;1.27;;;17.80;99.90;;;;;;5093692;28;20044;-60
2022/05/13 09:17:53;;;;;;;6.85;1.27;;;16.90;99.90;;;;;;5094624;28;20279;-60
2022/05/13 09:20:22;;;;;;;7.40;1.50;;;16.50;99.90;;;;;;5093047;28;20043;-60
2022/05/13 09:22:54;;;;;;;6.70;1.60;;;16.50;99.90;;;;;;5094014;28;20463;-60
2022/05/13 09:25:33;;;;;;;;;;;17.20;99.90;;;;;;5092903;28;20167;-60
2022/05/13 09:28:09;;;;;;;7.15;1.52;;;15.90;99.90;;;;;;5094507;28;19976;-60
2022/05/13 09:30:47;;;;;;;6.07;1.15;;;16.60;99.90;;;;;;5094188;28;20495;-61
2022/05/13 09:33:36;;;;;;;7.05;1.52;;;16.10;99.90;;;;;;5093708;28;20042;-60
2022/05/13 09:36:28;;;;;;;9.57;1.35;;;15.60;99.90;;;;;;5093899;28;20096;-60
2022/05/13 09:38:57;;;;;;;7.45;1.48;;;15.40;99.90;;;;;;5094048;28;20400;-59
2022/05/13 09:41:34;;;;;;;7.88;1.80;;;15.80;99.90;;;;;;5091938;28;20062;-60
2022/05/13 09:44:17;;;;;;;7.80;1.50;;;15.60;99.90;;;;;;5093372;28;20488;-60
2022/05/13 09:46:50;;;;;;;11.43;2.03;;;15.60;99.90;;;;;;5091634;28;20040;-63
2022/05/13 09:49:33;;;;;;;9.38;1.80;;;15.60;99.90;;;;;;5092505;28;20044;-60
2022/05/13 09:52:10;;;;;;;7.65;1.73;;;15.70;99.90;;;;;;5092487;28;20096;-60
2022/05/13 09:54:44;;;;;;;14.10;2.05;;;15.50;99.90;;;;;;5092475;28;20079;-60
2022/05/13 09:57:22;;;;;;;8.75;2.17;;;15.60;99.90;;;;;;5091870;28;20067;-60
2022/05/13 10:00:06;;;;;;;14.02;1.95;;;15.80;99.90;;;;;;5093438;28;20063;-59
2022/05/13 10:02:38;;;;;;;7.97;2.55;;;15.70;99.90;;;;;;5093651;28;20050;-59
2022/05/13 10:05:20;;;;;;;11.50;2.63;;;16.00;99.90;;;;;;5092721;28;20621;-60
2022/05/13 10:07:55;;;;;;;9.25;1.70;;;16.20;99.90;;;;;;5092218;28;20508;-60
2022/05/13 10:16:12;;;;;;;11.10;2.13;;;16.30;99.90;;;;;;5092467;28;20126;-60
2022/05/13 10:18:59;;;;;;;10.10;2.17;;;16.40;99.90;;;;;;5093005;28;20051;-61
2022/05/13 10:22:07;;;;;;;10.00;2.38;;;16.60;99.90;;;;;;5093194;28;20047;-60
2022/05/13 10:24:47;;;;;;;10.57;1.63;;;17.10;99.90;;;;;;5008401;28;20944;-60
2022/05/13 10:27:29;;;;;;;8.40;1.58;;;17.60;99.90;;;;;;4991938;28;20715;-60
2022/05/13 10:30:03;;;;;;;8.68;1.80;;;18.20;99.90;;;;;;5009386;28;20510;-60
2022/05/13 10:32:44;;;;;;;9.98;2.00;;;19.30;99.90;;;;;;5010420;28;20175;-58
2022/05/13 10:35:16;;;;;;;6.75;1.70;;;18.80;99.90;;;;;;5009897;28;20552;-60
2022/05/13 10:38:00;;;;;;;6.72;1.70;;;18.70;99.90;;;;;;5008483;28;20309;-60
2022/05/13 10:40:32;;;;;;;7.10;1.80;;;16.70;99.90;;;;;;5010996;28;20095;-60
2022/05/13 10:43:16;;;;;;;8.15;1.90;;;17.90;99.90;;;;;;5010350;28;20046;-59
2022/05/13 10:45:44;;;;;;;5.53;1.65;;;17.30;99.90;;;;;;5007982;28;20441;-60
2022/05/13 10:48:26;;;;;;;6.93;1.63;;;17.30;99.90;;;;;;5009746;28;20039;-60
2022/05/13 10:51:01;;;;;;;7.50;2.03;;;17.20;99.90;;;;;;4992973;28;20125;-60
2022/05/13 10:54:07;;;;;;;6.70;1.60;;;16.90;99.90;;;;;;5009351;28;20057;-60
2022/05/13 10:56:53;;;;;;;7.63;1.38;;;16.90;99.90;;;;;;4992065;28;21699;-60
2022/05/13 10:59:32;;;;;;;7.90;1.90;;;16.50;99.90;;;;;;5023410;28;20056;-60
2022/05/13 11:02:29;;;;;;;9.10;2.20;;;16.20;99.90;;;;;;5027898;28;20056;-60
2022/05/13 11:05:21;;;;;;;8.05;1.83;;;16.00;99.90;;;;;;4997602;28;20074;-60
2022/05/13 11:08:14;;;;;;;9.20;1.85;;;16.00;99.90;;;;;;4935079;28;20138;-60
2022/05/13 11:10:51;;;;;;;7.05;1.73;;;15.70;99.90;;;;;;4937961;28;20055;-60
2022/05/13 11:13:48;;;;;;;7.00;1.88;;;16.00;99.90;;;;;;4937090;28;20133;-60
2022/05/13 11:16:26;;;;;;;10.68;1.98;;;15.80;99.90;;;;;;4936032;28;20079;-60
2022/05/13 11:19:05;;;;;;;11.57;1.90;;;16.10;99.90;;;;;;4937367;28;20075;-59
2022/05/13 11:21:46;;;;;;;11.88;2.13;;;16.30;99.90;;;;;;4936092;28;20069;-60
2022/05/13 11:27:50;;;;;;;10.82;2.20;;;16.40;99.90;;;;;;4937322;28;20531;-60
2022/05/13 11:30:19;;;;;;;9.40;2.17;;;16.60;99.90;;;;;;4950866;28;20078;-60
2022/05/13 11:33:14;;;;;;;10.45;1.92;;;16.50;99.90;;;;;;4973510;28;20061;-59
2022/05/13 11:36:09;;;;;;;7.93;1.70;;;16.60;99.90;;;;;;4952978;28;20216;-60
2022/05/13 11:39:12;;;;;;;6.75;1.48;;;16.70;99.90;;;;;;4953131;28;20158;-60
2022/05/13 11:41:49;;;;;;;8.90;1.50;;;16.60;99.90;;;;;;4956690;28;20046;-59
2022/05/13 11:44:20;;;;;;;5.82;1.55;;;16.90;99.90;;;;;;4979123;28;20045;-60
2022/05/13 11:47:14;;;;;;;6.28;1.35;;;17.20;99.90;;;;;;5028372;28;20619;-60
2022/05/13 11:49:43;;;;;;;7.63;1.30;;;17.40;99.90;;;;;;5029717;28;20041;-59
2022/05/13 11:52:11;;;;;;;4.75;1.50;;;17.10;99.90;;;;;;5013226;28;20091;-60
2022/05/13 11:54:40;;;;;;;7.68;2.05;;;18.10;99.90;;;;;;5029412;28;20468;-60
2022/05/13 11:57:25;;;;;;;8.05;1.77;;;17.20;99.90;;;;;;5032420;28;20068;-60
2022/05/13 11:59:51;;;;;;;8.27;2.22;;;16.90;99.90;;;;;;5032644;28;20133;-59
2022/05/13 12:02:49;;;;;;;11.63;1.60;;;16.80;99.90;;;;;;5032629;28;20094;-60
2022/05/13 12:05:18;;;;;;;5.10;1.42;;;16.70;99.90;;;;;;5031703;28;20123;-59
2022/05/13 12:07:54;;;;;;;8.70;1.70;;;17.50;99.90;;;;;;5032014;28;20312;-60
2022/05/13 12:10:42;;;;;;;8.20;1.70;;;16.20;99.90;;;;;;5032752;28;20040;-59
2022/05/13 12:13:33;;;;;;;8.93;1.70;;;16.80;99.90;;;;;;5074279;28;20085;-60
2022/05/13 12:16:32;;;;;;;7.10;1.67;;;16.90;99.90;;;;;;5094005;28;20043;-59
2022/05/13 12:19:34;;;;;;;8.90;1.85;;;17.20;99.90;;;;;;5093924;28;20131;-60
2022/05/13 12:22:12;;;;;;;7.32;1.80;;;18.60;99.90;;;;;;5030674;28;20049;-60
2022/05/13 12:25:01;;;;;;;8.95;1.88;;;17.00;99.90;;;;;;5031384;28;20173;-60
2022/05/13 12:27:45;;;;;;;9.80;2.10;;;17.10;99.90;;;;;;5029793;28;20080;-59
2022/05/13 12:30:42;;;;;;;8.90;1.75;;;17.40;99.90;;;;;;5031233;28;20565;-60
2022/05/13 12:33:28;;;;;;;7.85;1.90;;;17.90;99.90;;;;;;5028651;28;20071;-60
2022/05/13 12:39:10;;;;;;;9.23;2.20;;;18.00;99.90;;;;;;5029609;28;20048;-60
2022/05/13 12:41:44;;;;;;;8.23;1.80;;;17.70;99.90;;;;;;4990871;28;20148;-59
2022/05/13 12:44:16;;;;;;;8.73;2.08;;;19.40;99.90;;;;;;4990701;28;20880;-58
2022/05/13 12:46:46;;;;;;;;;;;17.10;99.90;;;;;;4991649;28;20069;-60
2022/05/13 12:49:25;;;;;;;13.25;2.15;;;18.00;99.90;;;;;;4989095;28;19952;-59
2022/05/13 12:52:03;;;;;;;13.75;2.20;;;16.80;99.90;;;;;;4990357;28;20054;-60
2022/05/13 12:54:34;;;;;;;17.40;2.13;;;16.70;99.90;;;;;;4989810;28;20050;-60
2022/05/13 12:57:12;;;;;;;11.15;1.98;;;16.60;99.90;;;;;;5005234;28;20474;-60
2022/05/13 12:59:46;;;;;;;9.48;2.05;;;16.80;99.90;;;;;;5050301;28;20853;-60
2022/05/13 13:02:12;;;;;;;8.90;1.85;;;19.10;99.90;;;;;;5051034;28;20036;-59
2022/05/13 13:04:52;;;;;;;8.43;2.13;;;19.10;99.90;;;;;;5048674;28;20051;-60
2022/05/13 13:07:20;;;;;;;7.10;1.60;;;16.60;99.90;;;;;;5049713;28;20064;-60
2022/05/13 13:09:50;;;;;;;12.43;2.25;;;16.80;99.90;;;;;;5028228;28;20262;-59
2022/05/13 13:12:24;;;;;;;7.45;1.90;;;17.10;99.90;;;;;;5052092;28;20369;-60
2022/05/13 13:15:03;;;;;;;9.75;2.05;;;17.00;99.90;;;;;;5049962;28;20036;-60
2022/05/13 13:17:47;;;;;;;11.95;1.88;;;16.90;99.90;;;;;;5061731;28;20677;-60
2022/05/13 13:20:16;;;;;;;13.63;1.92;;;16.70;99.90;;;;;;5094640;28;20439;-60
2022/05/13 13:22:46;;;;;;;11.25;2.95;;;16.60;99.90;;;;;;5091620;28;20060;-60
2022/05/13 13:25:44;;;;;;;9.77;1.88;;;16.60;99.90;;;;;;5090288;28;20045;-60
2022/05/13 13:28:27;;;;;;;8.52;1.65;;;16.90;99.90;;;;;;5088292;28;20070;-60
2022/05/13 13:30:56;;;;;;;15.35;2.20;;;16.80;99.90;;;;;;5091979;28;20266;-60
2022/05/13 13:33:26;;;;;;;10.88;2.40;;;17.70;99.90;;;;;;5092678;28;20776;-60
2022/05/13 13:35:53;;;;;;;10.57;2.17;;;18.70;99.90;;;;;;5091865;28;20317;-60
2022/05/13 13:38:19;;;;;;;10.13;2.30;;;18.50;99.90;;;;;;5092805;28;20043;-60